createdAt,value
2018-01-11T00:00:08.608Z,22.30
2018-01-11T04:02:16.564Z,30.30
2018-01-11T04:03:11.686Z,32.50
2018-01-11T04:04:11.598Z,29.80
2018-01-11T04:05:11.535Z,28.50
2018-01-11T04:06:11.466Z,27.50
2018-01-11T04:07:11.361Z,27.40
2018-01-11T04:08:11.277Z,30.20
2018-01-11T04:09:11.198Z,32.40
2018-01-11T04:10:11.121Z,28.20
2018-01-11T04:11:11.072Z,30.90
2018-01-11T04:12:10.957Z,25.00
2018-01-11T04:13:10.885Z,26.90
2018-01-11T04:14:10.795Z,30.50
2018-01-11T04:15:10.719Z,30.00
2018-01-11T04:16:10.641Z,27.10
2018-01-11T04:17:10.563Z,26.00
2018-01-11T04:18:10.477Z,28.10
2018-01-11T04:19:10.393Z,28.70
2018-01-11T04:20:10.318Z,27.40
2018-01-11T04:21:10.246Z,29.70
2018-01-11T04:22:10.188Z,33.40
2018-01-11T04:23:10.073Z,30.50
2018-01-11T04:24:09.993Z,26.10
2018-01-11T04:25:09.912Z,28.40
2018-01-11T04:26:09.834Z,25.90
2018-01-11T04:27:09.753Z,29.70
2018-01-11T04:28:09.688Z,28.20
2018-01-11T04:29:09.592Z,29.00
2018-01-11T04:30:09.517Z,32.80
2018-01-11T04:31:09.438Z,31.50
2018-01-11T04:32:09.357Z,29.60
2018-01-11T04:33:09.298Z,33.90
2018-01-11T04:34:09.195Z,29.40
2018-01-11T04:35:09.112Z,35.00
2018-01-11T04:36:09.028Z,38.20
2018-01-11T04:37:08.955Z,43.00
2018-01-11T04:38:08.869Z,44.10
2018-01-11T04:39:08.791Z,38.20
2018-01-11T04:40:08.717Z,33.40
2018-01-11T04:41:08.634Z,32.30
2018-01-11T04:42:08.557Z,40.50
2018-01-11T04:43:08.468Z,40.00
2018-01-11T04:44:08.424Z,36.70
2018-01-11T04:45:08.352Z,43.50
2018-01-11T04:46:08.237Z,36.80
2018-01-11T04:47:08.146Z,43.00
2018-01-11T04:48:08.072Z,45.20
2018-01-11T04:49:08.062Z,42.10
2018-01-11T04:50:07.915Z,43.30
2018-01-11T04:51:07.825Z,40.50
2018-01-11T04:52:07.753Z,41.00
2018-01-11T04:53:07.673Z,42.50
2018-01-11T04:54:07.590Z,45.50
2018-01-11T04:55:07.533Z,39.30
2018-01-11T04:56:07.435Z,39.20
2018-01-11T04:57:07.346Z,43.50
2018-01-11T04:58:07.258Z,41.60
2018-01-11T04:59:07.177Z,47.40
2018-01-11T05:00:07.127Z,52.50
2018-01-11T05:01:07.027Z,47.80
2018-01-11T05:02:06.942Z,51.90
2018-01-11T05:03:06.866Z,43.30
2018-01-11T05:04:06.784Z,53.90
2018-01-11T05:05:06.700Z,50.90
2018-01-11T05:06:06.617Z,48.10
2018-01-11T05:07:06.544Z,56.40
2018-01-11T05:08:06.645Z,56.30
2018-01-11T05:09:06.379Z,41.20
2018-01-11T05:10:06.296Z,54.90
2018-01-11T05:11:06.245Z,61.60
2018-01-11T05:12:06.129Z,44.80
2018-01-11T05:13:06.054Z,51.60
2018-01-11T05:14:05.977Z,48.10
2018-01-11T05:15:05.891Z,57.20
2018-01-11T05:16:05.817Z,53.30
2018-01-11T05:17:05.731Z,55.30
2018-01-11T05:18:05.644Z,51.00
2018-01-11T05:19:05.567Z,49.90
2018-01-11T05:20:05.478Z,53.90
2018-01-11T05:21:05.408Z,52.80
2018-01-11T05:22:05.351Z,56.00
2018-01-11T05:23:05.248Z,51.40
2018-01-11T05:24:05.157Z,50.60
2018-01-11T05:25:05.082Z,54.00
2018-01-11T05:26:04.995Z,54.30
2018-01-11T05:27:04.913Z,51.40
2018-01-11T05:28:04.840Z,56.40
2018-01-11T05:29:04.752Z,50.00
2018-01-11T05:30:04.667Z,50.60
2018-01-11T05:31:04.585Z,49.10
2018-01-11T05:32:04.505Z,54.80
2018-01-11T05:33:04.464Z,55.20
2018-01-11T05:34:04.350Z,56.20
2018-01-11T05:35:04.320Z,53.10
2018-01-11T05:36:04.185Z,52.00
2018-01-11T05:37:04.097Z,55.40
2018-01-11T05:38:04.018Z,57.30
2018-01-11T05:39:03.939Z,53.60
2018-01-11T05:40:03.869Z,49.70
2018-01-11T05:41:03.778Z,56.70
2018-01-11T05:42:03.697Z,50.50
2018-01-11T05:43:03.610Z,52.10
2018-01-11T05:44:03.570Z,59.60
2018-01-11T05:45:03.446Z,69.00
2018-01-11T05:46:03.378Z,53.70
2018-01-11T05:47:03.283Z,56.40
2018-01-11T05:48:03.210Z,49.40
2018-01-11T05:49:03.128Z,55.40
2018-01-11T05:50:03.054Z,49.90
2018-01-11T05:51:02.965Z,46.80
2018-01-11T05:52:02.878Z,53.80
2018-01-11T05:53:02.795Z,61.00
2018-01-11T05:54:02.713Z,84.50
2018-01-11T05:55:02.669Z,69.00
2018-01-11T05:56:02.550Z,65.60
2018-01-11T05:57:02.480Z,51.80
2018-01-11T05:58:02.387Z,51.70
2018-01-11T05:59:02.306Z,46.80
2018-01-11T06:00:02.257Z,47.00
2018-01-11T06:01:02.153Z,55.80
2018-01-11T06:02:02.059Z,45.50
2018-01-11T06:03:01.989Z,50.40
2018-01-11T06:04:01.905Z,45.40
2018-01-11T06:05:01.823Z,45.60
2018-01-11T06:06:01.770Z,42.20
2018-01-11T06:07:01.660Z,47.90
2018-01-11T06:08:01.578Z,43.10
2018-01-11T06:09:01.489Z,55.60
2018-01-11T06:10:01.409Z,43.50
2018-01-11T06:11:01.330Z,51.10
2018-01-11T06:12:01.252Z,47.50
2018-01-11T06:13:01.173Z,55.40
2018-01-11T06:14:01.082Z,42.20
2018-01-11T06:15:01.011Z,42.90
2018-01-11T06:16:00.923Z,43.90
2018-01-11T06:17:00.878Z,37.80
2018-01-11T06:18:00.765Z,38.20
2018-01-11T06:19:00.685Z,41.90
2018-01-11T06:20:00.598Z,39.00
2018-01-11T06:21:00.528Z,37.80
2018-01-11T06:22:00.447Z,42.20
2018-01-11T06:23:00.362Z,35.70
2018-01-11T06:24:00.271Z,32.60
2018-01-11T06:25:00.201Z,34.60
2018-01-11T06:26:00.116Z,40.90
2018-01-11T06:27:00.047Z,40.90
2018-01-11T06:27:59.977Z,36.20
2018-01-11T06:28:59.866Z,32.80
2018-01-11T06:29:59.783Z,37.10
2018-01-11T06:30:59.712Z,34.20
2018-01-11T06:31:59.637Z,40.10
2018-01-11T06:32:59.545Z,42.30
2018-01-11T06:33:59.471Z,36.80
2018-01-11T06:34:59.379Z,32.60
2018-01-11T06:35:59.299Z,32.40
2018-01-11T06:36:59.222Z,32.20
2018-01-11T06:37:59.134Z,31.30
2018-01-11T06:38:59.064Z,36.90
2018-01-11T06:39:58.975Z,41.40
2018-01-11T06:40:58.899Z,33.60
2018-01-11T06:41:58.814Z,29.90
2018-01-11T06:42:58.737Z,32.50
2018-01-11T06:43:58.676Z,31.80
2018-01-11T06:44:58.577Z,33.90
2018-01-11T06:45:58.495Z,31.20
2018-01-11T06:46:58.413Z,35.30
2018-01-11T06:47:58.332Z,30.40
2018-01-11T06:48:58.254Z,32.30
2018-01-11T06:49:58.169Z,36.80
2018-01-11T06:50:58.083Z,43.50
2018-01-11T06:51:58.004Z,33.80
2018-01-11T06:52:57.923Z,30.40
2018-01-11T06:53:57.847Z,28.30
2018-01-11T06:54:57.795Z,30.00
2018-01-11T06:55:57.679Z,30.00
2018-01-11T06:56:57.597Z,34.10
2018-01-11T06:57:57.525Z,32.20
2018-01-11T06:58:57.444Z,36.20
2018-01-11T06:59:57.359Z,32.30
2018-01-11T07:00:57.290Z,31.50
2018-01-11T07:01:57.203Z,30.30
2018-01-11T07:02:57.116Z,33.40
2018-01-11T07:03:57.032Z,38.90
2018-01-11T07:04:56.954Z,29.70
2018-01-11T07:05:56.898Z,30.70
2018-01-11T07:06:56.804Z,36.20
2018-01-11T07:07:56.718Z,33.40
2018-01-11T07:08:56.628Z,35.60
2018-01-11T07:09:56.556Z,32.20
2018-01-11T07:10:56.467Z,37.00
2018-01-11T07:11:56.396Z,34.40
2018-01-11T07:12:56.305Z,32.40
2018-01-11T07:13:56.232Z,31.10
2018-01-11T07:14:56.147Z,29.70
2018-01-11T07:15:56.075Z,32.20
2018-01-11T07:16:56.020Z,31.50
2018-01-11T07:17:55.907Z,36.10
2018-01-11T07:18:55.829Z,33.80
2018-01-11T07:19:55.745Z,33.90
2018-01-11T07:20:55.662Z,31.00
2018-01-11T07:21:55.579Z,33.30
2018-01-11T07:22:55.548Z,41.40
2018-01-11T07:23:55.416Z,34.90
2018-01-11T07:24:55.344Z,37.80
2018-01-11T07:25:55.258Z,36.10
2018-01-11T07:26:55.197Z,36.80
2018-01-11T07:27:55.143Z,42.20
2018-01-11T07:28:55.018Z,35.90
2018-01-11T07:29:54.938Z,32.50
2018-01-11T07:30:54.860Z,34.80
2018-01-11T07:31:54.768Z,32.20
2018-01-11T07:32:54.697Z,32.70
2018-01-11T07:33:54.618Z,35.10
2018-01-11T07:34:54.540Z,33.40
2018-01-11T07:35:54.457Z,32.40
2018-01-11T07:36:54.367Z,29.60
2018-01-11T07:37:54.290Z,31.10
2018-01-11T07:38:54.237Z,30.60
2018-01-11T07:39:54.127Z,31.80
2018-01-11T07:40:54.048Z,31.50
2018-01-11T07:41:53.969Z,32.10
2018-01-11T07:42:53.890Z,37.20
2018-01-11T07:43:53.808Z,36.90
2018-01-11T07:44:53.731Z,36.60
2018-01-11T07:45:53.649Z,31.30
2018-01-11T07:46:53.564Z,31.80
2018-01-11T07:47:53.481Z,31.50
2018-01-11T07:48:53.401Z,32.90
2018-01-11T07:49:53.348Z,34.40
2018-01-11T07:50:53.239Z,35.20
2018-01-11T07:51:53.166Z,40.20
2018-01-11T07:52:53.083Z,35.10
2018-01-11T07:53:53.005Z,33.10
2018-01-11T07:54:52.917Z,31.20
2018-01-11T07:55:52.846Z,33.20
2018-01-11T07:56:52.755Z,33.20
2018-01-11T07:57:52.681Z,35.10
2018-01-11T07:58:52.600Z,33.30
2018-01-11T07:59:52.517Z,34.70
2018-01-11T08:00:52.458Z,37.20
2018-01-11T08:01:52.359Z,33.70
2018-01-11T08:02:52.282Z,33.30
2018-01-11T08:03:52.189Z,33.40
2018-01-11T08:04:52.113Z,40.60
2018-01-11T08:05:52.040Z,39.60
2018-01-11T08:06:51.957Z,34.40
2018-01-11T08:07:51.868Z,34.70
2018-01-11T08:08:51.791Z,32.30
2018-01-11T08:09:51.707Z,33.50
2018-01-11T08:10:51.631Z,36.30
2018-01-11T08:11:51.602Z,34.30
2018-01-11T08:12:51.475Z,32.70
2018-01-11T08:13:51.385Z,32.00
2018-01-11T08:14:51.309Z,34.10
2018-01-11T08:15:51.230Z,31.90
2018-01-11T08:16:51.160Z,33.40
2018-01-11T08:17:51.063Z,29.70
2018-01-11T08:18:50.984Z,33.10
2018-01-11T08:19:50.902Z,34.20
2018-01-11T08:20:50.821Z,33.40
2018-01-11T08:21:50.741Z,34.80
2018-01-11T08:22:50.690Z,30.10
2018-01-11T08:23:50.578Z,29.80
2018-01-11T08:24:50.508Z,31.30
2018-01-11T08:25:50.427Z,30.10
2018-01-11T08:26:50.349Z,33.50
2018-01-11T08:27:50.290Z,34.00
2018-01-11T08:28:50.184Z,33.20
2018-01-11T08:29:50.099Z,38.50
2018-01-11T08:30:50.022Z,37.10
2018-01-11T08:31:49.937Z,35.30
2018-01-11T08:32:49.861Z,30.80
2018-01-11T08:33:49.780Z,35.00
2018-01-11T08:34:49.757Z,31.30
2018-01-11T08:35:49.614Z,30.60
2018-01-11T08:36:49.542Z,37.70
2018-01-11T08:37:49.459Z,33.40
2018-01-11T08:38:49.411Z,32.10
2018-01-11T08:39:49.295Z,33.40
2018-01-11T08:40:49.220Z,30.40
2018-01-11T08:41:49.131Z,31.80
2018-01-11T08:42:49.052Z,33.60
2018-01-11T08:43:48.972Z,33.60
2018-01-11T08:44:48.892Z,33.10
2018-01-11T08:45:48.814Z,32.60
2018-01-11T08:46:48.735Z,32.80
2018-01-11T08:47:48.657Z,31.20
2018-01-11T08:48:48.575Z,31.10
2018-01-11T08:49:48.525Z,32.50
2018-01-11T08:50:48.411Z,34.50
2018-01-11T08:51:48.329Z,35.20
2018-01-11T08:52:48.251Z,30.40
2018-01-11T08:53:48.169Z,32.20
2018-01-11T08:54:48.090Z,30.10
2018-01-11T08:55:48.013Z,32.90
2018-01-11T08:56:47.936Z,32.00
2018-01-11T08:57:47.848Z,30.50
2018-01-11T08:58:47.766Z,30.70
2018-01-11T08:59:47.693Z,33.50
2018-01-11T09:00:47.636Z,33.10
2018-01-11T09:01:47.537Z,28.40
2018-01-11T09:02:47.454Z,28.80
2018-01-11T09:03:47.373Z,29.80
2018-01-11T09:04:47.288Z,29.00
2018-01-11T09:05:47.236Z,30.80
2018-01-11T09:06:47.134Z,28.80
2018-01-11T09:07:47.053Z,27.90
2018-01-11T09:08:46.971Z,30.10
2018-01-11T09:09:46.884Z,29.10
2018-01-11T09:10:46.803Z,29.20
2018-01-11T09:11:46.727Z,32.50
2018-01-11T09:12:46.651Z,29.80
2018-01-11T09:13:46.565Z,29.60
2018-01-11T09:14:46.492Z,30.20
2018-01-11T09:15:46.409Z,31.10
2018-01-11T09:16:46.352Z,29.00
2018-01-11T09:17:46.246Z,29.80
2018-01-11T09:18:46.169Z,29.00
2018-01-11T09:19:46.091Z,32.10
2018-01-11T09:20:46.013Z,30.70
2018-01-11T09:21:45.934Z,33.90
2018-01-11T09:22:45.847Z,36.70
2018-01-11T09:23:45.772Z,34.60
2018-01-11T09:24:45.688Z,32.50
2018-01-11T09:25:45.615Z,29.70
2018-01-11T09:26:45.534Z,31.40
2018-01-11T09:27:45.474Z,28.80
2018-01-11T09:28:45.379Z,27.80
2018-01-11T09:29:45.294Z,29.50
2018-01-11T09:30:45.214Z,30.60
2018-01-11T09:31:45.129Z,30.30
2018-01-11T09:32:45.056Z,27.30
2018-01-11T09:33:44.977Z,28.90
2018-01-11T09:34:44.892Z,28.70
2018-01-11T09:35:44.815Z,28.20
2018-01-11T09:36:44.736Z,28.90
2018-01-11T09:37:44.649Z,29.30
2018-01-11T09:38:44.598Z,30.20
2018-01-11T09:39:44.498Z,29.20
2018-01-11T09:40:44.421Z,27.80
2018-01-11T09:41:44.338Z,29.50
2018-01-11T09:42:44.252Z,29.60
2018-01-11T09:43:44.196Z,31.30
2018-01-11T09:44:44.098Z,29.80
2018-01-11T09:45:44.069Z,30.20
2018-01-11T09:46:43.942Z,32.70
2018-01-11T09:47:43.861Z,31.40
2018-01-11T09:48:43.809Z,31.10
2018-01-11T09:49:43.696Z,34.60
2018-01-11T09:50:43.622Z,31.10
2018-01-11T09:51:43.539Z,31.80
2018-01-11T09:52:43.464Z,31.70
2018-01-11T09:53:43.378Z,31.50
2018-01-11T09:54:43.309Z,32.90
2018-01-11T09:55:43.219Z,31.00
2018-01-11T09:56:43.146Z,31.10
2018-01-11T09:57:43.068Z,29.90
2018-01-11T09:58:42.990Z,29.10
2018-01-11T09:59:42.938Z,29.60
2018-01-11T10:00:42.825Z,30.20
2018-01-11T10:01:42.747Z,28.90
2018-01-11T10:02:42.671Z,28.50
2018-01-11T10:03:42.587Z,29.70
2018-01-11T10:04:42.517Z,33.10
2018-01-11T10:05:42.428Z,30.80
2018-01-11T10:06:42.354Z,34.40
2018-01-11T10:07:42.280Z,29.90
2018-01-11T10:08:42.197Z,31.50
2018-01-11T10:09:42.114Z,30.00
2018-01-11T10:10:42.055Z,31.00
2018-01-11T10:11:41.974Z,28.80
2018-01-11T10:12:41.882Z,29.70
2018-01-11T10:13:41.797Z,32.70
2018-01-11T10:14:41.722Z,29.60
2018-01-11T10:15:41.667Z,28.80
2018-01-11T10:16:41.564Z,30.00
2018-01-11T10:17:41.483Z,30.80
2018-01-11T10:18:41.399Z,31.50
2018-01-11T10:19:41.322Z,28.90
2018-01-11T10:20:41.270Z,30.80
2018-01-11T10:21:41.172Z,30.40
2018-01-11T10:22:41.081Z,30.80
2018-01-11T10:23:41.013Z,28.90
2018-01-11T10:24:40.925Z,29.80
2018-01-11T10:25:40.855Z,28.20
2018-01-11T10:26:40.769Z,28.90
2018-01-11T10:27:40.697Z,29.40
2018-01-11T10:28:40.615Z,29.90
2018-01-11T10:29:40.539Z,28.00
2018-01-11T10:30:40.467Z,27.80
2018-01-11T10:31:40.407Z,29.30
2018-01-11T10:32:40.292Z,27.70
2018-01-11T10:33:40.214Z,28.90
2018-01-11T10:34:40.135Z,28.70
2018-01-11T10:35:40.058Z,29.70
2018-01-11T10:36:39.988Z,28.30
2018-01-11T10:37:39.908Z,27.80
2018-01-11T10:38:39.828Z,28.10
2018-01-11T10:39:39.744Z,27.80
2018-01-11T10:40:39.666Z,28.30
2018-01-11T10:41:39.584Z,27.20
2018-01-11T10:42:39.531Z,27.40
2018-01-11T10:43:39.432Z,28.20
2018-01-11T10:44:39.346Z,29.50
2018-01-11T10:45:39.277Z,28.30
2018-01-11T10:46:39.188Z,27.70
2018-01-11T10:47:39.108Z,28.30
2018-01-11T10:48:39.034Z,27.80
2018-01-11T10:49:38.960Z,27.80
2018-01-11T10:50:38.881Z,27.50
2018-01-11T10:51:38.827Z,28.20
2018-01-11T10:52:38.728Z,27.10
2018-01-11T10:53:38.672Z,26.70
2018-01-11T10:54:38.566Z,26.40
2018-01-11T10:55:38.486Z,25.40
2018-01-11T10:56:38.402Z,24.80
2018-01-11T10:57:38.319Z,25.40
2018-01-11T10:58:38.242Z,25.10
2018-01-11T10:59:38.170Z,26.50
2018-01-11T11:00:38.084Z,25.10
2018-01-11T11:01:38.014Z,25.40
2018-01-11T11:02:37.929Z,23.70
2018-01-11T11:03:37.856Z,25.10
2018-01-11T11:04:37.800Z,24.10
2018-01-11T11:05:37.697Z,23.40
2018-01-11T11:06:37.611Z,24.00
2018-01-11T11:07:37.542Z,23.80
2018-01-11T11:08:37.457Z,23.90
2018-01-11T11:09:37.379Z,24.10
2018-01-11T11:10:37.301Z,22.70
2018-01-11T11:11:37.229Z,24.10
2018-01-11T11:12:37.148Z,22.30
2018-01-11T11:13:37.072Z,21.90
2018-01-11T11:14:36.985Z,21.30
2018-01-11T11:15:36.940Z,21.50
2018-01-11T11:16:36.828Z,21.30
2018-01-11T11:17:36.754Z,20.60
2018-01-11T11:18:36.679Z,22.00
2018-01-11T11:19:36.602Z,21.80
2018-01-11T11:20:36.513Z,22.50
2018-01-11T11:21:36.447Z,22.30
2018-01-11T11:22:36.355Z,22.10
2018-01-11T11:23:36.282Z,22.80
2018-01-11T11:24:36.210Z,23.40
2018-01-11T11:25:36.131Z,21.80
2018-01-11T11:26:36.077Z,22.00
2018-01-11T11:27:35.974Z,20.90
2018-01-11T11:28:35.888Z,22.60
2018-01-11T11:29:35.812Z,22.70
2018-01-11T11:30:35.747Z,21.60
2018-01-11T11:31:35.693Z,23.30
2018-01-11T11:32:35.581Z,23.10
2018-01-11T11:33:35.500Z,24.20
2018-01-11T11:34:35.420Z,21.30
2018-01-11T11:35:35.344Z,22.60
2018-01-11T11:36:35.268Z,23.20
2018-01-11T11:37:35.189Z,24.00
2018-01-11T11:38:35.113Z,23.60
2018-01-11T11:39:35.035Z,25.40
2018-01-11T11:40:34.948Z,23.60
2018-01-11T11:41:34.914Z,24.70
2018-01-11T11:42:34.829Z,25.30
2018-01-11T11:43:34.723Z,26.50
2018-01-11T11:44:34.641Z,26.90
2018-01-11T11:45:34.567Z,25.60
2018-01-11T11:46:34.478Z,25.50
2018-01-11T11:47:34.405Z,26.70
2018-01-11T11:48:34.329Z,27.70
2018-01-11T11:49:34.252Z,27.70
2018-01-11T11:50:34.169Z,26.90
2018-01-11T11:51:34.102Z,27.50
2018-01-11T11:52:34.020Z,26.50
2018-01-11T11:53:33.966Z,26.30
2018-01-11T11:54:33.857Z,27.40
2018-01-11T11:55:33.804Z,28.20
2018-01-11T11:56:33.706Z,28.50
2018-01-11T11:57:33.632Z,29.10
2018-01-11T11:58:33.544Z,28.40
2018-01-11T11:59:33.474Z,28.60
2018-01-11T12:00:33.389Z,27.40
2018-01-11T12:01:33.306Z,27.20
2018-01-11T12:02:33.237Z,28.50
2018-01-11T12:03:33.164Z,30.10
2018-01-11T12:04:33.104Z,31.00
2018-01-11T12:05:33.002Z,30.70
2018-01-11T12:06:32.924Z,30.20
2018-01-11T12:07:32.837Z,28.50
2018-01-11T12:08:32.762Z,28.30
2018-01-11T12:09:32.692Z,29.00
2018-01-11T12:10:32.610Z,28.90
2018-01-11T12:11:32.528Z,29.10
2018-01-11T12:12:32.452Z,29.20
2018-01-11T12:13:32.370Z,28.70
2018-01-11T12:14:32.295Z,28.90
2018-01-11T12:15:32.246Z,29.40
2018-01-11T12:16:32.189Z,26.50
2018-01-11T12:17:32.055Z,25.70
2018-01-11T12:18:31.975Z,23.80
2018-01-11T12:19:31.892Z,24.70
2018-01-11T12:20:31.818Z,24.80
2018-01-11T12:21:31.739Z,24.30
2018-01-11T12:22:31.663Z,21.50
2018-01-11T12:23:31.578Z,21.00
2018-01-11T12:24:31.508Z,20.90
2018-01-11T12:25:31.430Z,20.80
2018-01-11T12:26:31.378Z,21.00
2018-01-11T12:27:31.265Z,20.10
2018-01-11T12:28:31.192Z,21.20
2018-01-11T12:29:31.114Z,19.80
2018-01-11T12:30:31.040Z,18.70
2018-01-11T12:31:30.960Z,19.40
2018-01-11T12:32:30.876Z,18.10
2018-01-11T12:33:30.790Z,18.60
2018-01-11T12:34:30.715Z,17.00
2018-01-11T12:35:30.637Z,17.00
2018-01-11T12:36:30.563Z,17.00
2018-01-11T12:37:30.507Z,16.00
2018-01-11T12:38:30.404Z,16.40
2018-01-11T12:39:30.320Z,16.40
2018-01-11T12:40:30.250Z,17.20
2018-01-11T12:41:30.163Z,17.30
2018-01-11T12:42:30.120Z,16.90
2018-01-11T12:43:30.012Z,15.20
2018-01-11T12:44:29.930Z,15.70
2018-01-11T12:45:29.858Z,14.70
2018-01-11T12:46:29.779Z,12.50
2018-01-11T12:47:29.695Z,12.90
2018-01-11T12:48:29.614Z,11.10
2018-01-11T12:49:29.545Z,11.20
2018-01-11T12:50:29.466Z,10.80
2018-01-11T12:51:29.379Z,10.00
2018-01-11T12:52:29.303Z,10.60
2018-01-11T12:53:29.253Z,10.30
2018-01-11T12:54:29.157Z,10.80
2018-01-11T12:55:29.077Z,12.90
2018-01-11T12:56:28.998Z,10.60
2018-01-11T12:57:28.918Z,12.10
2018-01-11T12:58:28.839Z,12.50
2018-01-11T12:59:28.763Z,14.20
2018-01-11T13:00:28.690Z,11.20
2018-01-11T13:01:28.607Z,12.60
2018-01-11T13:02:28.526Z,12.60
2018-01-11T13:03:28.458Z,11.20
2018-01-11T13:04:28.396Z,10.60
2018-01-11T13:05:28.289Z,12.30
2018-01-11T13:06:28.217Z,9.90
2018-01-11T13:07:28.145Z,10.70
2018-01-11T13:08:28.060Z,9.40
2018-01-11T13:09:27.987Z,11.10
2018-01-11T13:10:27.906Z,12.30
2018-01-11T13:11:27.826Z,10.90
2018-01-11T13:12:27.749Z,11.70
2018-01-11T13:13:27.676Z,13.40
2018-01-11T13:14:27.599Z,11.80
2018-01-11T13:15:27.548Z,11.50
2018-01-11T13:16:27.445Z,11.90
2018-01-11T13:17:27.359Z,11.50
2018-01-11T13:18:27.284Z,10.90
2018-01-11T13:19:27.211Z,12.00
2018-01-11T13:20:27.131Z,12.30
2018-01-11T13:21:27.055Z,11.50
2018-01-11T13:22:26.971Z,11.40
2018-01-11T13:23:26.900Z,11.80
2018-01-11T13:24:26.821Z,13.10
2018-01-11T13:25:26.737Z,13.30
2018-01-11T13:26:26.708Z,14.20
2018-01-11T13:27:26.591Z,15.70
2018-01-11T13:28:26.512Z,16.00
2018-01-11T13:29:26.434Z,14.50
2018-01-11T13:30:26.350Z,16.30
2018-01-11T13:31:26.278Z,15.70
2018-01-11T13:32:26.227Z,13.80
2018-01-11T13:33:26.124Z,15.60
2018-01-11T13:34:26.047Z,14.30
2018-01-11T13:35:25.997Z,16.50
2018-01-11T13:36:25.883Z,14.10
2018-01-11T13:37:25.841Z,14.50
2018-01-11T13:38:25.726Z,16.40
2018-01-11T13:39:25.656Z,14.70
2018-01-11T13:40:25.577Z,14.80
2018-01-11T13:41:25.502Z,14.70
2018-01-11T13:42:25.421Z,16.60
2018-01-11T13:43:25.345Z,16.10
2018-01-11T13:44:25.261Z,15.10
2018-01-11T13:45:25.185Z,15.30
2018-01-11T13:46:25.100Z,17.80
2018-01-11T13:47:25.024Z,19.80
2018-01-11T13:48:24.980Z,17.20
2018-01-11T13:49:24.868Z,18.60
2018-01-11T13:50:24.795Z,19.10
2018-01-11T13:51:24.718Z,20.50
2018-01-11T13:52:24.637Z,18.40
2018-01-11T13:53:24.554Z,17.60
2018-01-11T13:54:24.486Z,17.00
2018-01-11T13:55:24.397Z,18.50
2018-01-11T13:56:24.323Z,20.60
2018-01-11T13:57:24.252Z,21.30
2018-01-11T13:58:24.168Z,18.60
2018-01-11T13:59:24.118Z,18.70
2018-01-11T14:00:24.006Z,21.80
2018-01-11T14:01:23.928Z,20.90
2018-01-11T14:02:23.850Z,22.60
2018-01-11T14:03:23.773Z,19.40
2018-01-11T14:04:23.695Z,20.60
2018-01-11T14:05:23.626Z,21.40
2018-01-11T14:06:23.544Z,25.80
2018-01-11T14:07:23.465Z,25.50
2018-01-11T14:08:23.384Z,24.00
2018-01-11T14:09:23.311Z,27.10
2018-01-11T14:10:23.263Z,25.40
2018-01-11T14:11:23.148Z,26.70
2018-01-11T14:12:23.074Z,33.70
2018-01-11T14:13:22.987Z,28.60
2018-01-11T14:14:22.912Z,30.50
2018-01-11T14:15:22.839Z,30.40
2018-01-11T14:16:22.773Z,28.80
2018-01-11T14:17:22.741Z,30.10
2018-01-11T14:18:22.595Z,28.50
2018-01-11T14:19:22.521Z,30.40
2018-01-11T14:20:22.437Z,30.50
2018-01-11T14:21:22.391Z,30.90
2018-01-11T14:22:22.281Z,30.00
2018-01-11T14:23:22.220Z,29.40
2018-01-11T14:24:22.118Z,31.70
2018-01-11T14:25:22.050Z,31.00
2018-01-11T14:26:21.985Z,33.50
2018-01-11T14:27:21.895Z,31.90
2018-01-11T14:28:21.814Z,33.20
2018-01-11T14:29:21.734Z,34.10
2018-01-11T14:30:21.656Z,33.80
2018-01-11T14:31:21.577Z,33.40
2018-01-11T14:32:21.523Z,33.70
2018-01-11T14:33:21.419Z,33.00
2018-01-11T14:34:21.333Z,32.50
2018-01-11T14:35:21.251Z,33.70
2018-01-11T14:36:21.182Z,33.80
2018-01-11T14:37:21.102Z,37.00
2018-01-11T14:38:21.019Z,36.60
2018-01-11T14:39:20.939Z,35.10
2018-01-11T14:40:20.863Z,33.80
2018-01-11T14:41:20.780Z,36.10
2018-01-11T14:42:20.708Z,33.10
2018-01-11T14:43:20.660Z,34.30
2018-01-11T14:44:20.608Z,35.30
2018-01-11T14:45:20.497Z,36.40
2018-01-11T14:46:20.388Z,35.60
2018-01-11T14:47:20.314Z,34.40
2018-01-11T14:48:20.236Z,36.80
2018-01-11T14:49:20.146Z,35.50
2018-01-11T14:50:20.067Z,35.00
2018-01-11T14:51:20.007Z,34.00
2018-01-11T14:52:19.919Z,34.60
2018-01-11T14:53:19.833Z,36.90
2018-01-11T14:54:19.789Z,42.60
2018-01-11T14:55:19.673Z,37.30
2018-01-11T14:56:19.602Z,36.70
2018-01-11T14:57:19.515Z,33.80
2018-01-11T14:58:19.461Z,36.70
2018-01-11T14:59:19.364Z,38.40
2018-01-11T15:00:19.285Z,36.00
2018-01-11T15:01:19.206Z,35.50
2018-01-11T15:02:19.132Z,35.60
2018-01-11T15:03:19.048Z,36.50
2018-01-11T15:04:18.965Z,33.50
2018-01-11T15:05:18.910Z,38.30
2018-01-11T15:06:18.808Z,35.80
2018-01-11T15:07:18.731Z,38.60
2018-01-11T15:08:18.645Z,36.30
2018-01-11T15:09:18.568Z,37.90
2018-01-11T15:10:18.524Z,38.20
2018-01-11T15:11:18.408Z,36.10
2018-01-11T15:12:18.339Z,40.90
2018-01-11T15:13:18.259Z,37.80
2018-01-11T15:14:18.177Z,37.80
2018-01-11T15:15:18.095Z,36.00
2018-01-11T15:16:18.080Z,36.40
2018-01-11T15:17:17.943Z,37.80
2018-01-11T15:18:17.868Z,35.90
2018-01-11T15:19:17.780Z,39.00
2018-01-11T15:20:17.705Z,37.10
2018-01-11T15:21:17.649Z,38.80
2018-01-11T15:22:17.539Z,37.10
2018-01-11T15:23:17.464Z,39.80
2018-01-11T15:24:17.381Z,39.40
2018-01-11T15:25:17.308Z,39.10
2018-01-11T15:26:17.251Z,42.00
2018-01-11T15:27:17.215Z,38.50
2018-01-11T15:28:17.068Z,42.00
2018-01-11T15:29:16.990Z,38.10
2018-01-11T15:30:16.903Z,35.50
2018-01-11T15:31:16.836Z,39.10
2018-01-11T15:32:16.753Z,38.90
2018-01-11T15:33:16.675Z,41.40
2018-01-11T15:34:16.596Z,40.40
2018-01-11T15:35:16.513Z,43.60
2018-01-11T15:36:16.430Z,38.20
2018-01-11T15:37:16.387Z,37.90
2018-01-11T15:38:16.270Z,37.60
2018-01-11T15:39:16.189Z,39.60
2018-01-11T15:40:16.176Z,40.30
2018-01-11T15:41:16.054Z,38.00
2018-01-11T15:42:15.958Z,36.70
2018-01-11T15:43:15.880Z,36.80
2018-01-11T15:44:15.797Z,38.10
2018-01-11T15:45:15.716Z,39.50
2018-01-11T15:46:15.644Z,40.20
2018-01-11T15:47:15.560Z,38.80
2018-01-11T15:48:15.506Z,41.70
2018-01-11T15:49:15.398Z,39.60
2018-01-11T15:50:15.326Z,41.50
2018-01-11T15:51:15.238Z,40.50
2018-01-11T15:52:15.179Z,46.20
2018-01-11T15:53:15.112Z,44.00
2018-01-11T15:54:15.006Z,45.20
2018-01-11T15:55:14.927Z,42.40
2018-01-11T15:56:14.842Z,41.10
2018-01-11T15:57:14.771Z,42.50
2018-01-11T15:58:14.709Z,44.40
2018-01-11T15:59:14.613Z,41.10
2018-01-11T16:00:14.525Z,44.80
2018-01-11T16:01:14.450Z,47.50
2018-01-11T16:02:14.368Z,41.50
2018-01-11T16:03:14.288Z,44.20
2018-01-11T16:04:14.236Z,46.30
2018-01-11T16:05:14.131Z,43.20
2018-01-11T16:06:14.107Z,45.00
2018-01-11T16:07:13.976Z,48.90
2018-01-11T16:08:13.896Z,44.70
2018-01-11T16:09:13.817Z,45.40
2018-01-11T16:10:13.732Z,43.70
2018-01-11T16:11:13.651Z,45.00
2018-01-11T16:12:13.578Z,46.80
2018-01-11T16:13:13.495Z,46.90
2018-01-11T16:14:13.416Z,47.60
2018-01-11T16:15:13.357Z,46.80
2018-01-11T16:16:13.263Z,45.80
2018-01-11T16:17:13.251Z,46.40
2018-01-11T16:18:13.101Z,48.90
2018-01-11T16:19:13.014Z,41.70
2018-01-11T16:20:12.944Z,44.50
2018-01-11T16:21:12.864Z,47.10
2018-01-11T16:22:12.786Z,45.30
2018-01-11T16:23:12.703Z,48.70
2018-01-11T16:24:12.655Z,48.90
2018-01-11T16:25:12.569Z,47.10
2018-01-11T16:26:12.457Z,48.50
2018-01-11T16:27:12.379Z,50.80
2018-01-11T16:28:12.301Z,47.40
2018-01-11T16:29:12.221Z,41.70
2018-01-11T16:30:12.142Z,48.70
2018-01-11T16:31:12.073Z,49.80
2018-01-11T16:32:11.987Z,47.90
2018-01-11T16:33:11.904Z,49.30
2018-01-11T16:34:11.827Z,48.20
2018-01-11T16:35:11.751Z,48.50
2018-01-11T16:36:11.691Z,47.10
2018-01-11T16:37:11.608Z,48.60
2018-01-11T16:38:11.508Z,48.70
2018-01-11T16:39:11.432Z,46.00
2018-01-11T16:40:11.361Z,46.80
2018-01-11T16:41:11.298Z,50.00
2018-01-11T16:42:11.213Z,47.40
2018-01-11T16:43:11.104Z,53.70
2018-01-11T16:44:11.036Z,49.20
2018-01-11T16:45:10.951Z,48.70
2018-01-11T16:46:10.873Z,52.50
2018-01-11T16:47:10.788Z,50.80
2018-01-11T16:48:10.711Z,56.40
2018-01-11T16:49:10.627Z,57.60
2018-01-11T16:50:10.555Z,55.90
2018-01-11T16:51:10.497Z,55.40
2018-01-11T16:52:10.394Z,53.20